»·PEaware :: FDX1014 KOAK-KSEA

FDX1014 :: KOAK-KSEA

FLIGHT INFORMATION

Flight Status: Arrived
Operator:
Federal Express
More flights by this operator :: More flights under this callsign
Pilot: Jim M. (18055)
Aircraft: BOEING 777-200
(B772)
More flights by this aircraft type
Origin: KOAK Metro Oakland Intl
United States
Destination: KSEA Seattle-Tacoma Intl
United States
More flights between these airports :: More routes between these airports
Route: OAK3 OAK DEDHD RBL LMT HAWKZ7
File this flight plan on PilotEdge
Remarks:
Altitude:
(Current/Filed)
36,000ft
Speed:
(Current/Filed)
450kts
Departed: 08-Jan-19 11:07 AM
Arrived: 08-Jan-19 12:36 PM
Distance/Time
Traveled:
584nm/1:28
Distance/Time
To Go:
Arrived

Flight Plot

Page will automatically refresh every two minutes.


Map Options




Map Legend


Flown Route
Filed Route
Departure Airport
Arrival Airport
Navaid (VOR, NDB)
Fix

Horizontal Profiles

Position Reports

Time Latitude Longitude Heading Altitude Ground
Speed
08-Jan-19 10:15 37.719344 -122.217335 305 19ft 0kts
08-Jan-19 10:16 37.719344 -122.217335 305 19ft 0kts
08-Jan-19 10:17 37.719344 -122.217335 305 19ft 0kts
08-Jan-19 10:18 37.719344 -122.217335 305 19ft 0kts
08-Jan-19 10:19 37.719344 -122.217335 305 19ft 0kts
08-Jan-19 10:20 37.719344 -122.217335 305 19ft 0kts
08-Jan-19 10:21 37.719344 -122.217335 305 19ft 0kts
08-Jan-19 10:22 37.719344 -122.217335 305 19ft 0kts
08-Jan-19 10:23 37.719344 -122.217335 305 19ft 0kts
08-Jan-19 10:24 37.719344 -122.217335 305 19ft 0kts
08-Jan-19 10:25 37.719344 -122.217335 305 19ft 0kts
08-Jan-19 10:26 37.719344 -122.217335 305 19ft 0kts
08-Jan-19 10:27 37.719344 -122.217335 305 19ft 0kts
08-Jan-19 10:28 37.719344 -122.217335 305 19ft 0kts
08-Jan-19 10:29 37.719344 -122.217335 305 19ft 0kts
08-Jan-19 10:30 37.719344 -122.217335 305 19ft 0kts
08-Jan-19 10:31 37.719344 -122.217335 305 19ft 0kts
08-Jan-19 10:32 37.719344 -122.217335 305 19ft 0kts
08-Jan-19 10:33 37.719344 -122.217335 305 19ft 0kts
08-Jan-19 10:34 37.719344 -122.217335 305 19ft 0kts
08-Jan-19 10:35 37.719344 -122.217335 305 19ft 0kts
08-Jan-19 10:36 37.719344 -122.217335 305 19ft 0kts
08-Jan-19 10:37 37.719344 -122.217335 305 19ft 0kts
08-Jan-19 10:38 37.719344 -122.217335 305 19ft 0kts
08-Jan-19 10:39 37.719344 -122.217335 305 19ft 0kts
08-Jan-19 10:40 37.719344 -122.217335 305 19ft 0kts
08-Jan-19 10:41 37.719344 -122.217335 305 19ft 0kts
08-Jan-19 10:42 37.719344 -122.217335 305 19ft 0kts
08-Jan-19 10:43 37.719344 -122.217335 305 19ft 0kts
08-Jan-19 10:44 37.719344 -122.217335 305 19ft 0kts
08-Jan-19 10:45 37.719344 -122.217335 305 19ft 0kts
08-Jan-19 10:46 37.719344 -122.217335 305 19ft 0kts
08-Jan-19 10:47 37.719344 -122.217335 305 19ft 0kts
08-Jan-19 10:48 37.719078 -122.216811 297 19ft 2kts
08-Jan-19 10:49 37.718877 -122.216059 267 19ft 2kts
08-Jan-19 10:50 37.719066 -122.215611 220 19ft 0kts
08-Jan-19 10:51 37.719066 -122.215611 220 19ft 0kts
08-Jan-19 10:52 37.719066 -122.215611 220 19ft 0kts
08-Jan-19 10:53 37.718840 -122.215855 220 19ft 0kts
08-Jan-19 10:54 37.718250 -122.216110 179 19ft 6kts
08-Jan-19 10:55 37.716643 -122.217516 228 19ft 8kts
08-Jan-19 10:56 37.714702 -122.219924 224 19ft 10kts
08-Jan-19 10:57 37.712720 -122.222408 225 19ft 10kts
08-Jan-19 10:58 37.711062 -122.224834 276 19ft 8kts
08-Jan-19 10:59 37.713161 -122.228225 310 19ft 14kts
08-Jan-19 11:00 37.715453 -122.231759 308 19ft 15kts
08-Jan-19 11:01 37.717690 -122.235446 303 19ft 11kts
08-Jan-19 11:02 37.719255 -122.238420 303 19ft 9kts
08-Jan-19 11:03 37.719834 -122.239818 245 19ft 0kts
08-Jan-19 11:04 37.719834 -122.239818 245 19ft 0kts
08-Jan-19 11:05 37.719098 -122.240242 178 19ft 6kts
08-Jan-19 11:06 37.705831 -122.219881 127 938ft 184kts
08-Jan-19 11:07 37.670405 -122.165803 130 4828ft 237kts
08-Jan-19 11:08 37.662227 -122.080993 52 8050ft 293kts
08-Jan-19 11:09 37.738209 -122.030012 19 11273ft 336kts
08-Jan-19 11:10 37.837743 -122.029270 348 14058ft 391kts
08-Jan-19 11:11 37.950342 -122.048216 347 17752ft 422kts
08-Jan-19 11:12 38.070822 -122.068303 346 21114ft 449kts
08-Jan-19 11:13 38.198578 -122.089745 346 24114ft 476kts
08-Jan-19 11:14 38.332863 -122.112302 345 27113ft 496kts
08-Jan-19 11:15 38.475057 -122.123375 350 29744ft 522kts
08-Jan-19 11:16 38.620937 -122.132485 348 32592ft 521kts
08-Jan-19 11:17 38.764899 -122.142335 348 34986ft 519kts
08-Jan-19 11:18 38.909602 -122.152342 348 36265ft 520kts
08-Jan-19 11:19 39.054555 -122.162428 348 36266ft 522kts
08-Jan-19 11:20 39.200025 -122.172592 347 36278ft 523kts
08-Jan-19 11:21 39.344960 -122.182761 347 36276ft 522kts
08-Jan-19 11:22 39.489965 -122.192976 347 36277ft 522kts
08-Jan-19 11:23 39.635307 -122.203258 347 36281ft 522kts
08-Jan-19 11:24 39.780246 -122.213552 347 36282ft 522kts
08-Jan-19 11:25 39.925469 -122.223895 347 36284ft 522kts
08-Jan-19 11:26 40.070421 -122.234190 348 36286ft 524kts
08-Jan-19 11:27 40.218703 -122.210820 3 36289ft 544kts
08-Jan-19 11:28 40.366549 -122.171980 2 36275ft 542kts
08-Jan-19 11:29 40.515130 -122.135802 2 36263ft 542kts
08-Jan-19 11:30 40.663566 -122.099694 2 36256ft 543kts
08-Jan-19 11:31 40.811932 -122.063398 2 36246ft 543kts
08-Jan-19 11:32 40.960874 -122.026792 2 36231ft 544kts
08-Jan-19 11:33 41.109970 -121.989975 2 36220ft 541kts
08-Jan-19 11:34 41.256868 -121.953540 2 36213ft 538kts
08-Jan-19 11:35 41.404546 -121.916738 2 36196ft 539kts
08-Jan-19 11:36 41.551854 -121.879860 2 36184ft 539kts
08-Jan-19 11:37 41.699339 -121.842767 2 36173ft 540kts
08-Jan-19 11:38 41.847472 -121.805358 2 36151ft 541kts
08-Jan-19 11:39 41.995660 -121.767780 2 36150ft 541kts
08-Jan-19 11:40 42.143222 -121.732775 356 36149ft 532kts
08-Jan-19 11:41 42.285125 -121.755092 338 36148ft 508kts
08-Jan-19 11:42 42.424205 -121.789112 339 36142ft 508kts
08-Jan-19 11:43 42.564034 -121.821107 339 36132ft 509kts
08-Jan-19 11:45 42.703388 -121.853072 339 36104ft 507kts
08-Jan-19 11:46 42.842489 -121.885170 339 36088ft 507kts
08-Jan-19 11:47 42.982045 -121.917523 339 36073ft 507kts
08-Jan-19 11:48 43.120884 -121.949752 339 36059ft 507kts
08-Jan-19 11:49 43.259983 -121.982376 339 36048ft 508kts
08-Jan-19 11:50 43.400087 -122.015338 339 36035ft 514kts
08-Jan-19 11:51 43.541266 -122.048775 339 35994ft 513kts
08-Jan-19 11:52 43.681916 -122.082273 339 35989ft 513kts
08-Jan-19 11:53 43.822445 -122.115592 339 35984ft 513kts
08-Jan-19 11:54 43.963097 -122.149263 339 35980ft 512kts
08-Jan-19 11:55 44.103433 -122.183045 339 35976ft 512kts
08-Jan-19 11:56 44.243850 -122.217012 338 35952ft 513kts
08-Jan-19 11:57 44.384762 -122.251266 338 35928ft 513kts
08-Jan-19 11:58 44.525377 -122.285615 338 35915ft 515kts
08-Jan-19 11:59 44.666449 -122.320245 338 35900ft 514kts
08-Jan-19 12:00 44.807534 -122.355050 338 35908ft 514kts
08-Jan-19 12:01 44.948409 -122.389950 338 35881ft 515kts
08-Jan-19 12:02 45.089515 -122.425052 338 35870ft 514kts
08-Jan-19 12:02 45.206890 -122.454506 338 35869ft 514kts
08-Jan-19 12:03 45.347860 -122.489991 338 35871ft 514kts
08-Jan-19 12:05 45.512162 -122.531391 338 35870ft 514kts
08-Jan-19 12:06 45.652544 -122.567163 338 35787ft 508kts
08-Jan-19 12:06 45.768229 -122.596647 338 33270ft 515kts
08-Jan-19 12:08 45.929963 -122.636489 339 31131ft 492kts
08-Jan-19 12:09 46.065367 -122.670238 339 28602ft 488kts
08-Jan-19 12:09 46.175215 -122.693814 343 25562ft 481kts
08-Jan-19 12:10 46.305186 -122.719192 342 23569ft 464kts
08-Jan-19 12:12 46.454208 -122.727683 351 20553ft 451kts
08-Jan-19 12:12 46.556843 -122.730708 350 18744ft 433kts
08-Jan-19 12:13 46.675870 -122.735007 350 15982ft 415kts
08-Jan-19 12:14 46.783506 -122.726998 15 14924ft 393kts
08-Jan-19 12:15 46.873633 -122.636112 39 13487ft 393kts
08-Jan-19 12:16 46.961701 -122.551829 18 12561ft 367kts
08-Jan-19 12:17 47.058591 -122.509467 12 11178ft 364kts
08-Jan-19 12:18 47.156612 -122.486174 1 9921ft 353kts
08-Jan-19 12:19 47.252294 -122.470589 1 8892ft 342kts
08-Jan-19 12:20 47.346403 -122.456230 2 7749ft 336kts
08-Jan-19 12:21 47.438062 -122.455360 355 6593ft 322kts
08-Jan-19 12:22 47.523571 -122.457103 355 5836ft 293kts
08-Jan-19 12:23 47.602313 -122.460592 355 4765ft 276kts
08-Jan-19 12:24 47.677043 -122.466854 355 3899ft 261kts
08-Jan-19 12:25 47.744086 -122.456040 50 3634ft 224kts
08-Jan-19 12:26 47.745617 -122.382381 107 3646ft 180kts
08-Jan-19 12:27 47.714966 -122.335081 148 3656ft 163kts
08-Jan-19 12:28 47.676460 -122.304334 175 3669ft 158kts
08-Jan-19 12:29 47.632961 -122.306084 179 3665ft 146kts
08-Jan-19 12:30 47.593678 -122.306616 178 2949ft 142kts
08-Jan-19 12:31 47.554759 -122.306969 178 2205ft 131kts
08-Jan-19 12:32 47.518236 -122.307291 178 1506ft 131kts
08-Jan-19 12:33 47.481238 -122.307340 178 812ft 133kts
08-Jan-19 12:34 47.448806 -122.307895 179 447ft 58kts
08-Jan-19 12:35 47.445943 -122.306735 82 446ft 0kts
08-Jan-19 12:36 47.448704 -122.306253 1 446ft 13kts
08-Jan-19 12:37 47.452841 -122.306274 0 446ft 17kts
08-Jan-19 12:38 47.457605 -122.306234 0 446ft 16kts
08-Jan-19 12:39 47.461537 -122.306147 21 446ft 6kts
08-Jan-19 12:40 47.462243 -122.303916 7 446ft 4kts
08-Jan-19 12:41 47.462658 -122.303886 0 446ft 0kts
08-Jan-19 12:42 47.462658 -122.303886 0 446ft 0kts

Navigation Log

Ident Type
Flight plan parsing failed, navigation log unavailable